Abie, Nebraska
Current Conditions -  °F | °C
As of 1:35 AM on Sunday 26 Oct 2014 (Local Time) from KAHQ Reporting Station
Clear Clear  
Wind Chill: 52°   Ceiling: Unl
Heat Index: 52°   Visibility: 10mi
Dew Point: 41°   Wind: 3mph
Humidity: 66%   Direction: 80°E
Pressure: 29.97"   Gusts: NA
Location:  41.33°N, 96.95°W
Report Text: KAHQ 260635Z AUTO 08003KT 10SM CLR 11/05 A2997 RMK AO2 T01100048
Loading
Personal Weather Stations






























Interactive Weather Map
Tropical Storm Tracking
New forecast layout! Learn more

10-Day Weather Forecast

Advertisements
Track Severe Weather on mobile